sensor_id;sensor_type;location;lat;lon;timestamp;P1;durP1;ratioP1;P2;durP2;ratioP2
6207;SDS011;3137;51.550;7.060;2024-01-30T00:00:24;13.30;;;11.93;;
6207;SDS011;3137;51.550;7.060;2024-01-30T00:02:51;20.30;;;12.70;;
6207;SDS011;3137;51.550;7.060;2024-01-30T00:05:17;13.57;;;12.17;;
6207;SDS011;3137;51.550;7.060;2024-01-30T00:07:44;14.60;;;13.07;;
6207;SDS011;3137;51.550;7.060;2024-01-30T00:10:10;13.10;;;11.80;;
6207;SDS011;3137;51.550;7.060;2024-01-30T00:12:37;13.63;;;12.23;;
6207;SDS011;3137;51.550;7.060;2024-01-30T00:15:03;12.93;;;11.70;;
6207;SDS011;3137;51.550;7.060;2024-01-30T00:17:31;12.47;;;11.37;;
6207;SDS011;3137;51.550;7.060;2024-01-30T00:19:57;19.43;;;12.97;;
6207;SDS011;3137;51.550;7.060;2024-01-30T00:22:24;14.47;;;12.23;;
6207;SDS011;3137;51.550;7.060;2024-01-30T00:24:50;16.60;;;11.77;;
6207;SDS011;3137;51.550;7.060;2024-01-30T00:27:17;14.60;;;12.83;;
6207;SDS011;3137;51.550;7.060;2024-01-30T00:29:43;14.77;;;11.77;;
6207;SDS011;3137;51.550;7.060;2024-01-30T00:32:10;14.40;;;12.37;;
6207;SDS011;3137;51.550;7.060;2024-01-30T00:34:36;16.00;;;11.30;;
6207;SDS011;3137;51.550;7.060;2024-01-30T00:37:03;18.03;;;12.67;;
6207;SDS011;3137;51.550;7.060;2024-01-30T00:39:29;15.07;;;12.40;;
6207;SDS011;3137;51.550;7.060;2024-01-30T00:41:56;14.13;;;12.20;;
6207;SDS011;3137;51.550;7.060;2024-01-30T00:44:22;13.67;;;12.30;;
6207;SDS011;3137;51.550;7.060;2024-01-30T00:46:49;14.87;;;11.53;;
6207;SDS011;3137;51.550;7.060;2024-01-30T00:49:15;14.43;;;11.30;;
6207;SDS011;3137;51.550;7.060;2024-01-30T00:51:42;16.00;;;12.00;;
6207;SDS011;3137;51.550;7.060;2024-01-30T00:54:08;13.93;;;12.53;;
6207;SDS011;3137;51.550;7.060;2024-01-30T00:56:35;16.60;;;12.73;;
6207;SDS011;3137;51.550;7.060;2024-01-30T00:59:01;13.67;;;12.27;;
6207;SDS011;3137;51.550;7.060;2024-01-30T01:01:28;15.37;;;13.53;;
6207;SDS011;3137;51.550;7.060;2024-01-30T01:03:54;15.33;;;13.07;;
6207;SDS011;3137;51.550;7.060;2024-01-30T01:06:21;14.60;;;11.97;;
6207;SDS011;3137;51.550;7.060;2024-01-30T01:08:47;13.77;;;12.07;;
6207;SDS011;3137;51.550;7.060;2024-01-30T01:11:14;15.07;;;13.23;;
6207;SDS011;3137;51.550;7.060;2024-01-30T01:13:40;15.10;;;13.67;;
6207;SDS011;3137;51.550;7.060;2024-01-30T01:16:06;17.37;;;12.60;;
6207;SDS011;3137;51.550;7.060;2024-01-30T01:18:33;14.00;;;12.60;;
6207;SDS011;3137;51.550;7.060;2024-01-30T01:20:59;17.27;;;14.07;;
6207;SDS011;3137;51.550;7.060;2024-01-30T01:23:26;27.47;;;13.87;;
6207;SDS011;3137;51.550;7.060;2024-01-30T01:25:53;15.13;;;13.17;;
6207;SDS011;3137;51.550;7.060;2024-01-30T01:28:22;15.13;;;13.50;;
6207;SDS011;3137;51.550;7.060;2024-01-30T01:30:49;16.70;;;13.97;;
6207;SDS011;3137;51.550;7.060;2024-01-30T01:33:15;19.87;;;11.70;;
6207;SDS011;3137;51.550;7.060;2024-01-30T01:35:42;18.83;;;12.63;;
6207;SDS011;3137;51.550;7.060;2024-01-30T01:38:08;19.63;;;13.40;;
6207;SDS011;3137;51.550;7.060;2024-01-30T01:40:35;17.30;;;12.93;;
6207;SDS011;3137;51.550;7.060;2024-01-30T01:43:02;20.20;;;13.43;;
6207;SDS011;3137;51.550;7.060;2024-01-30T01:45:30;19.83;;;13.43;;
6207;SDS011;3137;51.550;7.060;2024-01-30T01:47:56;15.70;;;13.53;;
6207;SDS011;3137;51.550;7.060;2024-01-30T01:50:23;14.70;;;12.50;;
6207;SDS011;3137;51.550;7.060;2024-01-30T01:52:51;24.40;;;13.57;;
6207;SDS011;3137;51.550;7.060;2024-01-30T01:55:19;18.30;;;13.40;;
6207;SDS011;3137;51.550;7.060;2024-01-30T01:57:52;18.17;;;13.70;;
6207;SDS011;3137;51.550;7.060;2024-01-30T02:00:19;15.03;;;13.03;;
6207;SDS011;3137;51.550;7.060;2024-01-30T02:02:46;16.73;;;13.77;;
6207;SDS011;3137;51.550;7.060;2024-01-30T02:05:13;16.63;;;13.10;;
6207;SDS011;3137;51.550;7.060;2024-01-30T02:07:41;17.70;;;13.40;;
6207;SDS011;3137;51.550;7.060;2024-01-30T02:10:08;23.83;;;13.83;;
6207;SDS011;3137;51.550;7.060;2024-01-30T02:12:38;20.90;;;14.03;;
6207;SDS011;3137;51.550;7.060;2024-01-30T02:15:05;22.57;;;15.20;;
6207;SDS011;3137;51.550;7.060;2024-01-30T02:17:32;21.30;;;14.80;;
6207;SDS011;3137;51.550;7.060;2024-01-30T02:19:59;18.90;;;13.03;;
6207;SDS011;3137;51.550;7.060;2024-01-30T02:22:26;16.90;;;14.27;;
6207;SDS011;3137;51.550;7.060;2024-01-30T02:24:52;17.67;;;14.57;;
6207;SDS011;3137;51.550;7.060;2024-01-30T02:27:19;21.63;;;13.70;;
6207;SDS011;3137;51.550;7.060;2024-01-30T02:29:45;16.87;;;13.63;;
6207;SDS011;3137;51.550;7.060;2024-01-30T02:32:12;17.87;;;14.30;;
6207;SDS011;3137;51.550;7.060;2024-01-30T02:34:38;23.17;;;15.13;;
6207;SDS011;3137;51.550;7.060;2024-01-30T02:37:05;20.50;;;14.30;;
6207;SDS011;3137;51.550;7.060;2024-01-30T02:39:31;20.40;;;14.13;;
6207;SDS011;3137;51.550;7.060;2024-01-30T02:41:58;16.90;;;14.13;;
6207;SDS011;3137;51.550;7.060;2024-01-30T02:44:24;24.17;;;15.20;;
6207;SDS011;3137;51.550;7.060;2024-01-30T02:46:51;22.77;;;16.07;;
6207;SDS011;3137;51.550;7.060;2024-01-30T02:49:17;16.87;;;15.10;;
6207;SDS011;3137;51.550;7.060;2024-01-30T02:51:44;21.50;;;14.50;;
6207;SDS011;3137;51.550;7.060;2024-01-30T02:54:10;24.33;;;16.10;;
6207;SDS011;3137;51.550;7.060;2024-01-30T02:56:37;22.00;;;15.27;;
6207;SDS011;3137;51.550;7.060;2024-01-30T02:59:03;18.50;;;15.43;;
6207;SDS011;3137;51.550;7.060;2024-01-30T03:01:29;23.23;;;14.83;;
6207;SDS011;3137;51.550;7.060;2024-01-30T03:03:58;19.80;;;15.73;;
6207;SDS011;3137;51.550;7.060;2024-01-30T03:06:24;22.83;;;15.27;;
6207;SDS011;3137;51.550;7.060;2024-01-30T03:08:50;19.63;;;15.47;;
6207;SDS011;3137;51.550;7.060;2024-01-30T03:11:17;26.20;;;16.17;;
6207;SDS011;3137;51.550;7.060;2024-01-30T03:13:43;29.43;;;16.13;;
6207;SDS011;3137;51.550;7.060;2024-01-30T03:16:10;24.40;;;16.10;;
6207;SDS011;3137;51.550;7.060;2024-01-30T03:18:36;21.47;;;14.77;;
6207;SDS011;3137;51.550;7.060;2024-01-30T03:21:03;27.17;;;16.07;;
6207;SDS011;3137;51.550;7.060;2024-01-30T03:23:29;23.60;;;16.93;;
6207;SDS011;3137;51.550;7.060;2024-01-30T03:25:58;21.10;;;16.50;;
6207;SDS011;3137;51.550;7.060;2024-01-30T03:28:24;19.33;;;14.93;;
6207;SDS011;3137;51.550;7.060;2024-01-30T03:30:51;16.97;;;14.17;;
6207;SDS011;3137;51.550;7.060;2024-01-30T03:33:17;23.00;;;15.90;;
6207;SDS011;3137;51.550;7.060;2024-01-30T03:35:44;18.83;;;15.17;;
6207;SDS011;3137;51.550;7.060;2024-01-30T03:38:11;17.30;;;15.33;;
6207;SDS011;3137;51.550;7.060;2024-01-30T03:40:37;26.13;;;14.80;;
6207;SDS011;3137;51.550;7.060;2024-01-30T03:43:04;25.03;;;16.20;;
6207;SDS011;3137;51.550;7.060;2024-01-30T03:45:32;23.20;;;15.27;;
6207;SDS011;3137;51.550;7.060;2024-01-30T03:47:58;21.83;;;15.90;;
6207;SDS011;3137;51.550;7.060;2024-01-30T03:50:24;19.23;;;15.30;;
6207;SDS011;3137;51.550;7.060;2024-01-30T03:52:51;16.07;;;14.33;;
6207;SDS011;3137;51.550;7.060;2024-01-30T03:55:17;20.47;;;13.93;;
6207;SDS011;3137;51.550;7.060;2024-01-30T03:57:44;23.03;;;16.13;;
6207;SDS011;3137;51.550;7.060;2024-01-30T04:00:10;21.13;;;14.93;;
6207;SDS011;3137;51.550;7.060;2024-01-30T04:02:38;18.83;;;15.43;;
6207;SDS011;3137;51.550;7.060;2024-01-30T04:05:05;24.03;;;15.20;;
6207;SDS011;3137;51.550;7.060;2024-01-30T04:07:32;24.97;;;15.40;;
6207;SDS011;3137;51.550;7.060;2024-01-30T04:09:59;31.50;;;16.87;;
6207;SDS011;3137;51.550;7.060;2024-01-30T04:12:25;17.03;;;13.60;;
6207;SDS011;3137;51.550;7.060;2024-01-30T04:14:52;20.40;;;15.33;;
6207;SDS011;3137;51.550;7.060;2024-01-30T04:17:18;21.83;;;15.73;;
6207;SDS011;3137;51.550;7.060;2024-01-30T04:19:44;28.33;;;15.93;;
6207;SDS011;3137;51.550;7.060;2024-01-30T04:22:11;20.80;;;15.70;;
6207;SDS011;3137;51.550;7.060;2024-01-30T04:24:37;20.13;;;15.23;;
6207;SDS011;3137;51.550;7.060;2024-01-30T04:27:04;23.30;;;17.13;;
6207;SDS011;3137;51.550;7.060;2024-01-30T04:29:30;21.10;;;16.30;;
6207;SDS011;3137;51.550;7.060;2024-01-30T04:31:58;31.03;;;18.03;;
6207;SDS011;3137;51.550;7.060;2024-01-30T04:34:24;18.03;;;16.07;;
6207;SDS011;3137;51.550;7.060;2024-01-30T04:36:51;26.03;;;17.13;;
6207;SDS011;3137;51.550;7.060;2024-01-30T04:39:17;19.43;;;15.70;;
6207;SDS011;3137;51.550;7.060;2024-01-30T04:41:44;27.07;;;17.10;;
6207;SDS011;3137;51.550;7.060;2024-01-30T04:44:10;19.83;;;16.67;;
6207;SDS011;3137;51.550;7.060;2024-01-30T04:46:36;22.23;;;16.63;;
6207;SDS011;3137;51.550;7.060;2024-01-30T04:49:03;29.07;;;15.70;;
6207;SDS011;3137;51.550;7.060;2024-01-30T04:51:30;18.37;;;14.13;;
6207;SDS011;3137;51.550;7.060;2024-01-30T04:53:56;20.93;;;15.20;;
6207;SDS011;3137;51.550;7.060;2024-01-30T04:56:22;20.37;;;15.00;;
6207;SDS011;3137;51.550;7.060;2024-01-30T04:58:49;17.43;;;15.23;;
6207;SDS011;3137;51.550;7.060;2024-01-30T05:01:15;20.33;;;15.70;;
6207;SDS011;3137;51.550;7.060;2024-01-30T05:03:43;20.70;;;16.27;;
6207;SDS011;3137;51.550;7.060;2024-01-30T05:06:10;20.40;;;14.27;;
6207;SDS011;3137;51.550;7.060;2024-01-30T05:08:36;22.63;;;15.37;;
6207;SDS011;3137;51.550;7.060;2024-01-30T05:11:04;28.13;;;15.23;;
6207;SDS011;3137;51.550;7.060;2024-01-30T05:13:31;24.23;;;16.73;;
6207;SDS011;3137;51.550;7.060;2024-01-30T05:15:58;21.37;;;16.23;;
6207;SDS011;3137;51.550;7.060;2024-01-30T05:18:24;21.40;;;15.53;;
6207;SDS011;3137;51.550;7.060;2024-01-30T05:20:51;24.37;;;16.83;;
6207;SDS011;3137;51.550;7.060;2024-01-30T05:23:18;21.83;;;17.37;;
6207;SDS011;3137;51.550;7.060;2024-01-30T05:25:44;20.53;;;15.97;;
6207;SDS011;3137;51.550;7.060;2024-01-30T05:28:10;20.73;;;15.90;;
6207;SDS011;3137;51.550;7.060;2024-01-30T05:30:37;23.33;;;15.53;;
6207;SDS011;3137;51.550;7.060;2024-01-30T05:33:03;24.67;;;16.00;;
6207;SDS011;3137;51.550;7.060;2024-01-30T05:35:30;24.33;;;17.30;;
6207;SDS011;3137;51.550;7.060;2024-01-30T05:37:57;24.47;;;17.23;;
6207;SDS011;3137;51.550;7.060;2024-01-30T05:40:23;24.73;;;16.10;;
6207;SDS011;3137;51.550;7.060;2024-01-30T05:42:50;23.33;;;16.37;;
6207;SDS011;3137;51.550;7.060;2024-01-30T05:45:16;20.77;;;16.23;;
6207;SDS011;3137;51.550;7.060;2024-01-30T05:47:43;20.13;;;15.53;;
6207;SDS011;3137;51.550;7.060;2024-01-30T05:50:09;23.20;;;15.73;;
6207;SDS011;3137;51.550;7.060;2024-01-30T05:52:36;23.60;;;15.00;;
6207;SDS011;3137;51.550;7.060;2024-01-30T05:55:02;20.23;;;15.93;;
6207;SDS011;3137;51.550;7.060;2024-01-30T05:57:29;23.67;;;16.83;;
6207;SDS011;3137;51.550;7.060;2024-01-30T05:59:56;21.13;;;15.60;;
6207;SDS011;3137;51.550;7.060;2024-01-30T06:02:22;23.67;;;14.93;;
6207;SDS011;3137;51.550;7.060;2024-01-30T06:04:49;30.40;;;15.70;;
6207;SDS011;3137;51.550;7.060;2024-01-30T06:07:15;34.10;;;15.20;;
6207;SDS011;3137;51.550;7.060;2024-01-30T06:09:44;25.77;;;15.17;;
6207;SDS011;3137;51.550;7.060;2024-01-30T06:12:11;28.83;;;15.63;;
6207;SDS011;3137;51.550;7.060;2024-01-30T06:14:38;27.63;;;14.33;;
6207;SDS011;3137;51.550;7.060;2024-01-30T06:17:05;19.57;;;14.40;;
6207;SDS011;3137;51.550;7.060;2024-01-30T06:19:32;17.57;;;13.30;;
6207;SDS011;3137;51.550;7.060;2024-01-30T06:21:58;20.03;;;14.87;;
6207;SDS011;3137;51.550;7.060;2024-01-30T06:24:25;21.43;;;15.03;;
6207;SDS011;3137;51.550;7.060;2024-01-30T06:26:51;24.73;;;14.03;;
6207;SDS011;3137;51.550;7.060;2024-01-30T06:29:18;20.80;;;14.67;;
6207;SDS011;3137;51.550;7.060;2024-01-30T06:31:45;21.80;;;15.50;;
6207;SDS011;3137;51.550;7.060;2024-01-30T06:34:12;22.77;;;15.83;;
6207;SDS011;3137;51.550;7.060;2024-01-30T06:36:38;27.13;;;15.20;;
6207;SDS011;3137;51.550;7.060;2024-01-30T06:39:05;33.97;;;16.77;;
6207;SDS011;3137;51.550;7.060;2024-01-30T06:41:31;37.50;;;16.53;;
6207;SDS011;3137;51.550;7.060;2024-01-30T06:43:58;20.73;;;15.40;;
6207;SDS011;3137;51.550;7.060;2024-01-30T06:46:24;41.33;;;14.93;;
6207;SDS011;3137;51.550;7.060;2024-01-30T06:48:51;29.87;;;14.60;;
6207;SDS011;3137;51.550;7.060;2024-01-30T06:51:17;29.97;;;16.47;;
6207;SDS011;3137;51.550;7.060;2024-01-30T06:53:44;31.70;;;17.27;;
6207;SDS011;3137;51.550;7.060;2024-01-30T06:56:10;31.30;;;16.63;;
6207;SDS011;3137;51.550;7.060;2024-01-30T06:58:37;22.03;;;15.37;;
6207;SDS011;3137;51.550;7.060;2024-01-30T07:01:03;24.77;;;17.77;;
6207;SDS011;3137;51.550;7.060;2024-01-30T07:03:30;19.33;;;15.13;;
6207;SDS011;3137;51.550;7.060;2024-01-30T07:05:56;19.10;;;14.97;;
6207;SDS011;3137;51.550;7.060;2024-01-30T07:08:23;28.17;;;16.43;;
6207;SDS011;3137;51.550;7.060;2024-01-30T07:10:49;23.97;;;14.60;;
6207;SDS011;3137;51.550;7.060;2024-01-30T07:13:16;23.33;;;14.33;;
6207;SDS011;3137;51.550;7.060;2024-01-30T07:15:42;16.57;;;14.83;;
6207;SDS011;3137;51.550;7.060;2024-01-30T07:18:09;20.20;;;14.73;;
6207;SDS011;3137;51.550;7.060;2024-01-30T07:20:36;18.27;;;14.47;;
6207;SDS011;3137;51.550;7.060;2024-01-30T07:23:02;20.07;;;14.50;;
6207;SDS011;3137;51.550;7.060;2024-01-30T07:25:29;19.00;;;13.93;;
6207;SDS011;3137;51.550;7.060;2024-01-30T07:27:56;26.63;;;14.77;;
6207;SDS011;3137;51.550;7.060;2024-01-30T07:30:23;30.07;;;15.23;;
6207;SDS011;3137;51.550;7.060;2024-01-30T07:32:49;18.03;;;14.30;;
6207;SDS011;3137;51.550;7.060;2024-01-30T07:35:16;23.97;;;15.50;;
6207;SDS011;3137;51.550;7.060;2024-01-30T07:37:42;26.23;;;14.77;;
6207;SDS011;3137;51.550;7.060;2024-01-30T07:40:09;27.53;;;14.43;;
6207;SDS011;3137;51.550;7.060;2024-01-30T07:42:36;23.23;;;14.60;;
6207;SDS011;3137;51.550;7.060;2024-01-30T07:45:02;14.80;;;12.40;;
6207;SDS011;3137;51.550;7.060;2024-01-30T07:47:29;18.63;;;12.17;;
6207;SDS011;3137;51.550;7.060;2024-01-30T07:49:56;24.13;;;13.57;;
6207;SDS011;3137;51.550;7.060;2024-01-30T07:52:22;21.83;;;13.47;;
6207;SDS011;3137;51.550;7.060;2024-01-30T07:54:49;14.90;;;12.83;;
6207;SDS011;3137;51.550;7.060;2024-01-30T07:57:16;14.93;;;12.33;;
6207;SDS011;3137;51.550;7.060;2024-01-30T07:59:44;18.73;;;13.43;;
6207;SDS011;3137;51.550;7.060;2024-01-30T08:02:14;16.13;;;13.37;;
6207;SDS011;3137;51.550;7.060;2024-01-30T08:04:41;21.43;;;13.47;;
6207;SDS011;3137;51.550;7.060;2024-01-30T08:07:08;16.43;;;13.77;;
6207;SDS011;3137;51.550;7.060;2024-01-30T08:09:35;19.47;;;13.20;;
6207;SDS011;3137;51.550;7.060;2024-01-30T08:12:02;17.00;;;14.50;;
6207;SDS011;3137;51.550;7.060;2024-01-30T08:14:29;18.27;;;13.50;;
6207;SDS011;3137;51.550;7.060;2024-01-30T08:16:55;22.13;;;13.73;;
6207;SDS011;3137;51.550;7.060;2024-01-30T08:19:22;15.57;;;13.67;;
6207;SDS011;3137;51.550;7.060;2024-01-30T08:21:49;15.57;;;13.37;;
6207;SDS011;3137;51.550;7.060;2024-01-30T08:24:15;23.23;;;13.23;;
6207;SDS011;3137;51.550;7.060;2024-01-30T08:26:41;23.10;;;13.40;;
6207;SDS011;3137;51.550;7.060;2024-01-30T08:29:08;21.13;;;14.00;;
6207;SDS011;3137;51.550;7.060;2024-01-30T08:31:35;17.63;;;12.53;;
6207;SDS011;3137;51.550;7.060;2024-01-30T08:34:01;22.87;;;14.53;;
6207;SDS011;3137;51.550;7.060;2024-01-30T08:36:28;24.17;;;13.57;;
6207;SDS011;3137;51.550;7.060;2024-01-30T08:38:54;20.83;;;15.07;;
6207;SDS011;3137;51.550;7.060;2024-01-30T08:41:27;21.40;;;13.20;;
6207;SDS011;3137;51.550;7.060;2024-01-30T08:43:53;19.43;;;12.37;;
6207;SDS011;3137;51.550;7.060;2024-01-30T08:46:20;21.20;;;12.93;;
6207;SDS011;3137;51.550;7.060;2024-01-30T08:48:47;15.20;;;10.07;;
6207;SDS011;3137;51.550;7.060;2024-01-30T08:51:14;13.83;;;11.57;;
6207;SDS011;3137;51.550;7.060;2024-01-30T08:53:41;14.70;;;12.47;;
6207;SDS011;3137;51.550;7.060;2024-01-30T08:56:08;11.93;;;10.73;;
6207;SDS011;3137;51.550;7.060;2024-01-30T08:58:34;11.53;;;10.13;;
6207;SDS011;3137;51.550;7.060;2024-01-30T09:01:01;11.30;;;10.43;;
6207;SDS011;3137;51.550;7.060;2024-01-30T09:03:27;12.23;;;9.50;;
6207;SDS011;3137;51.550;7.060;2024-01-30T09:05:54;13.17;;;8.77;;
6207;SDS011;3137;51.550;7.060;2024-01-30T09:08:20;14.00;;;9.23;;
6207;SDS011;3137;51.550;7.060;2024-01-30T09:10:48;10.10;;;9.20;;
6207;SDS011;3137;51.550;7.060;2024-01-30T09:13:15;12.30;;;9.80;;
6207;SDS011;3137;51.550;7.060;2024-01-30T09:15:42;14.43;;;10.00;;
6207;SDS011;3137;51.550;7.060;2024-01-30T09:18:09;14.37;;;9.60;;
6207;SDS011;3137;51.550;7.060;2024-01-30T09:20:35;10.13;;;9.17;;
6207;SDS011;3137;51.550;7.060;2024-01-30T09:23:02;12.87;;;10.20;;
6207;SDS011;3137;51.550;7.060;2024-01-30T09:25:28;12.73;;;9.60;;
6207;SDS011;3137;51.550;7.060;2024-01-30T09:27:55;10.23;;;9.43;;
6207;SDS011;3137;51.550;7.060;2024-01-30T09:30:21;14.10;;;9.33;;
6207;SDS011;3137;51.550;7.060;2024-01-30T09:32:48;9.47;;;8.87;;
6207;SDS011;3137;51.550;7.060;2024-01-30T09:35:14;10.33;;;9.37;;
6207;SDS011;3137;51.550;7.060;2024-01-30T09:37:41;9.93;;;9.03;;
6207;SDS011;3137;51.550;7.060;2024-01-30T09:40:08;9.57;;;8.77;;
6207;SDS011;3137;51.550;7.060;2024-01-30T09:42:35;9.80;;;8.80;;
6207;SDS011;3137;51.550;7.060;2024-01-30T09:45:03;9.23;;;8.63;;
6207;SDS011;3137;51.550;7.060;2024-01-30T09:47:51;12.17;;;9.30;;
6207;SDS011;3137;51.550;7.060;2024-01-30T09:50:17;9.27;;;8.57;;
6207;SDS011;3137;51.550;7.060;2024-01-30T09:52:44;9.20;;;8.40;;
6207;SDS011;3137;51.550;7.060;2024-01-30T09:55:12;9.67;;;8.73;;
6207;SDS011;3137;51.550;7.060;2024-01-30T09:57:39;19.03;;;10.37;;
6207;SDS011;3137;51.550;7.060;2024-01-30T10:00:07;12.30;;;10.63;;
6207;SDS011;3137;51.550;7.060;2024-01-30T10:02:38;12.43;;;9.63;;
6207;SDS011;3137;51.550;7.060;2024-01-30T10:05:07;9.63;;;8.83;;
6207;SDS011;3137;51.550;7.060;2024-01-30T10:07:34;14.43;;;9.10;;
6207;SDS011;3137;51.550;7.060;2024-01-30T10:10:01;9.53;;;8.90;;
6207;SDS011;3137;51.550;7.060;2024-01-30T10:12:27;14.67;;;9.30;;
6207;SDS011;3137;51.550;7.060;2024-01-30T10:14:55;8.47;;;7.73;;
6207;SDS011;3137;51.550;7.060;2024-01-30T10:17:24;7.90;;;7.53;;
6207;SDS011;3137;51.550;7.060;2024-01-30T10:19:59;8.30;;;7.60;;
6207;SDS011;3137;51.550;7.060;2024-01-30T10:22:26;8.60;;;7.90;;
6207;SDS011;3137;51.550;7.060;2024-01-30T10:24:53;8.30;;;7.73;;
6207;SDS011;3137;51.550;7.060;2024-01-30T10:27:23;16.20;;;8.40;;
6207;SDS011;3137;51.550;7.060;2024-01-30T10:29:52;8.93;;;8.07;;
6207;SDS011;3137;51.550;7.060;2024-01-30T10:32:19;9.57;;;8.70;;
6207;SDS011;3137;51.550;7.060;2024-01-30T10:34:46;8.87;;;8.37;;
6207;SDS011;3137;51.550;7.060;2024-01-30T10:37:12;8.93;;;8.03;;
6207;SDS011;3137;51.550;7.060;2024-01-30T10:39:43;8.17;;;7.47;;
6207;SDS011;3137;51.550;7.060;2024-01-30T10:42:18;10.87;;;8.30;;
6207;SDS011;3137;51.550;7.060;2024-01-30T10:47:29;8.23;;;7.43;;
6207;SDS011;3137;51.550;7.060;2024-01-30T10:49:56;7.97;;;7.47;;
6207;SDS011;3137;51.550;7.060;2024-01-30T10:52:24;9.33;;;8.43;;
6207;SDS011;3137;51.550;7.060;2024-01-30T10:54:53;9.80;;;8.50;;
6207;SDS011;3137;51.550;7.060;2024-01-30T10:57:20;7.80;;;7.17;;
6207;SDS011;3137;51.550;7.060;2024-01-30T10:59:49;10.67;;;9.20;;
6207;SDS011;3137;51.550;7.060;2024-01-30T11:02:19;22.30;;;8.57;;
6207;SDS011;3137;51.550;7.060;2024-01-30T11:04:46;13.40;;;8.60;;
6207;SDS011;3137;51.550;7.060;2024-01-30T11:07:17;8.87;;;8.07;;
6207;SDS011;3137;51.550;7.060;2024-01-30T11:09:48;22.20;;;10.03;;
6207;SDS011;3137;51.550;7.060;2024-01-30T11:12:39;11.63;;;9.13;;
6207;SDS011;3137;51.550;7.060;2024-01-30T11:15:14;18.60;;;9.87;;
6207;SDS011;3137;51.550;7.060;2024-01-30T11:20:30;9.27;;;7.97;;
6207;SDS011;3137;51.550;7.060;2024-01-30T11:23:02;11.03;;;8.90;;
6207;SDS011;3137;51.550;7.060;2024-01-30T11:25:33;11.27;;;8.70;;
6207;SDS011;3137;51.550;7.060;2024-01-30T11:28:00;15.43;;;9.57;;
6207;SDS011;3137;51.550;7.060;2024-01-30T11:30:31;14.00;;;8.50;;
6207;SDS011;3137;51.550;7.060;2024-01-30T11:32:59;14.93;;;10.77;;
6207;SDS011;3137;51.550;7.060;2024-01-30T11:35:49;14.97;;;11.57;;
6207;SDS011;3137;51.550;7.060;2024-01-30T11:38:16;25.33;;;9.63;;
6207;SDS011;3137;51.550;7.060;2024-01-30T11:40:43;16.37;;;10.40;;
6207;SDS011;3137;51.550;7.060;2024-01-30T11:43:10;24.03;;;10.43;;
6207;SDS011;3137;51.550;7.060;2024-01-30T11:45:36;23.50;;;16.23;;
6207;SDS011;3137;51.550;7.060;2024-01-30T11:48:03;11.67;;;10.73;;
6207;SDS011;3137;51.550;7.060;2024-01-30T11:50:35;16.30;;;10.87;;
6207;SDS011;3137;51.550;7.060;2024-01-30T11:53:02;12.87;;;10.50;;
6207;SDS011;3137;51.550;7.060;2024-01-30T11:55:29;13.17;;;9.73;;
6207;SDS011;3137;51.550;7.060;2024-01-30T11:58:00;16.23;;;10.57;;
6207;SDS011;3137;51.550;7.060;2024-01-30T12:00:27;14.37;;;10.30;;
6207;SDS011;3137;51.550;7.060;2024-01-30T12:02:54;16.53;;;10.80;;
6207;SDS011;3137;51.550;7.060;2024-01-30T12:05:26;16.90;;;9.90;;
6207;SDS011;3137;51.550;7.060;2024-01-30T12:07:54;18.63;;;10.63;;
6207;SDS011;3137;51.550;7.060;2024-01-30T12:10:21;10.17;;;9.27;;
6207;SDS011;3137;51.550;7.060;2024-01-30T12:12:49;10.63;;;9.13;;
6207;SDS011;3137;51.550;7.060;2024-01-30T12:15:16;12.00;;;9.93;;
6207;SDS011;3137;51.550;7.060;2024-01-30T12:17:44;26.27;;;10.17;;
6207;SDS011;3137;51.550;7.060;2024-01-30T12:20:15;10.47;;;9.57;;
6207;SDS011;3137;51.550;7.060;2024-01-30T12:22:46;16.30;;;9.63;;
6207;SDS011;3137;51.550;7.060;2024-01-30T12:25:15;19.07;;;8.73;;
6207;SDS011;3137;51.550;7.060;2024-01-30T12:27:43;13.13;;;8.87;;
6207;SDS011;3137;51.550;7.060;2024-01-30T12:30:14;20.57;;;10.00;;
6207;SDS011;3137;51.550;7.060;2024-01-30T12:32:41;18.67;;;9.90;;
6207;SDS011;3137;51.550;7.060;2024-01-30T12:35:10;16.97;;;9.67;;
6207;SDS011;3137;51.550;7.060;2024-01-30T12:37:37;12.13;;;10.30;;
6207;SDS011;3137;51.550;7.060;2024-01-30T12:40:05;29.23;;;11.07;;
6207;SDS011;3137;51.550;7.060;2024-01-30T12:42:33;10.90;;;9.77;;
6207;SDS011;3137;51.550;7.060;2024-01-30T12:45:00;9.63;;;8.87;;
6207;SDS011;3137;51.550;7.060;2024-01-30T12:47:27;19.23;;;10.03;;
6207;SDS011;3137;51.550;7.060;2024-01-30T12:49:54;14.87;;;9.87;;
6207;SDS011;3137;51.550;7.060;2024-01-30T12:52:21;18.20;;;10.43;;
6207;SDS011;3137;51.550;7.060;2024-01-30T12:54:49;11.87;;;9.90;;
6207;SDS011;3137;51.550;7.060;2024-01-30T12:57:16;16.70;;;10.07;;
6207;SDS011;3137;51.550;7.060;2024-01-30T12:59:43;11.07;;;9.57;;
6207;SDS011;3137;51.550;7.060;2024-01-30T13:02:12;17.93;;;9.77;;
6207;SDS011;3137;51.550;7.060;2024-01-30T13:04:39;16.10;;;9.77;;
6207;SDS011;3137;51.550;7.060;2024-01-30T13:07:06;13.77;;;9.10;;
6207;SDS011;3137;51.550;7.060;2024-01-30T13:09:33;22.33;;;11.00;;
6207;SDS011;3137;51.550;7.060;2024-01-30T13:11:59;15.87;;;10.87;;
6207;SDS011;3137;51.550;7.060;2024-01-30T13:14:26;13.33;;;9.80;;
6207;SDS011;3137;51.550;7.060;2024-01-30T13:16:52;11.33;;;10.27;;
6207;SDS011;3137;51.550;7.060;2024-01-30T13:19:19;19.50;;;10.73;;
6207;SDS011;3137;51.550;7.060;2024-01-30T13:21:45;22.87;;;12.13;;
6207;SDS011;3137;51.550;7.060;2024-01-30T13:24:12;18.63;;;10.47;;
6207;SDS011;3137;51.550;7.060;2024-01-30T13:26:39;20.17;;;10.53;;
6207;SDS011;3137;51.550;7.060;2024-01-30T13:29:05;15.07;;;10.60;;
6207;SDS011;3137;51.550;7.060;2024-01-30T13:31:32;20.10;;;14.47;;
6207;SDS011;3137;51.550;7.060;2024-01-30T13:33:59;29.43;;;10.73;;
6207;SDS011;3137;51.550;7.060;2024-01-30T13:36:31;13.00;;;9.90;;
6207;SDS011;3137;51.550;7.060;2024-01-30T13:38:57;12.43;;;9.90;;
6207;SDS011;3137;51.550;7.060;2024-01-30T13:41:24;28.03;;;12.23;;
6207;SDS011;3137;51.550;7.060;2024-01-30T13:43:50;28.60;;;11.53;;
6207;SDS011;3137;51.550;7.060;2024-01-30T13:46:17;28.67;;;10.43;;
6207;SDS011;3137;51.550;7.060;2024-01-30T13:48:43;13.17;;;10.70;;
6207;SDS011;3137;51.550;7.060;2024-01-30T13:51:10;17.73;;;12.33;;
6207;SDS011;3137;51.550;7.060;2024-01-30T13:53:37;12.57;;;11.33;;
6207;SDS011;3137;51.550;7.060;2024-01-30T13:56:03;17.07;;;11.13;;
6207;SDS011;3137;51.550;7.060;2024-01-30T13:58:30;11.13;;;10.20;;
6207;SDS011;3137;51.550;7.060;2024-01-30T14:00:59;13.33;;;10.63;;
6207;SDS011;3137;51.550;7.060;2024-01-30T14:03:26;19.60;;;10.87;;
6207;SDS011;3137;51.550;7.060;2024-01-30T14:05:53;19.20;;;10.23;;
6207;SDS011;3137;51.550;7.060;2024-01-30T14:08:19;16.73;;;9.93;;
6207;SDS011;3137;51.550;7.060;2024-01-30T14:10:50;15.97;;;11.03;;
6207;SDS011;3137;51.550;7.060;2024-01-30T14:13:16;11.13;;;9.90;;
6207;SDS011;3137;51.550;7.060;2024-01-30T14:15:43;15.17;;;10.20;;
6207;SDS011;3137;51.550;7.060;2024-01-30T14:18:10;15.73;;;10.33;;
6207;SDS011;3137;51.550;7.060;2024-01-30T14:20:37;25.43;;;11.70;;
6207;SDS011;3137;51.550;7.060;2024-01-30T14:23:03;19.03;;;10.50;;
6207;SDS011;3137;51.550;7.060;2024-01-30T14:25:30;11.87;;;9.83;;
6207;SDS011;3137;51.550;7.060;2024-01-30T14:27:56;16.27;;;10.07;;
6207;SDS011;3137;51.550;7.060;2024-01-30T14:30:23;19.13;;;11.23;;
6207;SDS011;3137;51.550;7.060;2024-01-30T14:32:49;16.87;;;11.23;;
6207;SDS011;3137;51.550;7.060;2024-01-30T14:35:16;17.80;;;10.20;;
6207;SDS011;3137;51.550;7.060;2024-01-30T14:37:43;18.73;;;11.47;;
6207;SDS011;3137;51.550;7.060;2024-01-30T14:40:09;17.60;;;11.30;;
6207;SDS011;3137;51.550;7.060;2024-01-30T14:42:36;20.33;;;10.73;;
6207;SDS011;3137;51.550;7.060;2024-01-30T14:45:04;17.40;;;11.70;;
6207;SDS011;3137;51.550;7.060;2024-01-30T14:47:32;15.57;;;11.50;;
6207;SDS011;3137;51.550;7.060;2024-01-30T14:49:59;11.73;;;10.63;;
6207;SDS011;3137;51.550;7.060;2024-01-30T14:52:26;16.73;;;10.70;;
6207;SDS011;3137;51.550;7.060;2024-01-30T14:54:52;13.93;;;10.90;;
6207;SDS011;3137;51.550;7.060;2024-01-30T14:57:19;25.30;;;11.83;;